Russell Municipal Airport Russell US
ICAO: KRSL
IATA: RSL
Category: Medium
Scheduled Services: No

Elevation: 1862 ft
TransAlt. 18000 ft.

Airport Communications:
ASOS:128.325
KANSAS CITY CNTR:124.4
WICHITA RDO:122.6
CTAF/UNICOM:122.7

KRSL Zoom In..

If you have problems with the map follow the link
https://www.worldairports.se/pages/airport.php?
ICAO=KRSL

Runways:

(A) RW 03 length 1620 ft width 300 ft
---- / hdg 33

(B) RW 17 length 5000 ft width 75 ft
---- / hdg 167

(C) RW 21 length 1620 ft width 300 ft
---- / hdg 213

(D) RW 35 length 5000 ft width 75 ft
---- / hdg 347

Location; KRSL
Day. 18 / Time. 03.53 Zulu
* Altimeter: 29.76
* Temperature: 01° c. 33.8°f.
* Wind from: 260° Speed 05 kn.
Dewpoint: 00° c.
Visibility: 5 Statute Miles.
Clouds: Few 11000 ft.
Conditions: Mist.

KRSL 180353Z AUTO 26005KT 5SM BR FEW110 01/00 A2976 RMK AO2 SLP092 T00060000 $


Wind From 260°
Speed 05 kn.

 
 
jpsmedia worldairports.se 2020   terms of use